Molokai Airport Kaunakakai US
ICAO: PHMK
IATA:
Category: Medium
Scheduled Services:

Elevation: 454 ft
TransAlt. 18000 ft.

Airport Communications:
ATIS:128.2
HONOLULU CNTR:124.1
CTAF:125.7
GND:121.9
HONOLULU RDO:116.1
TWR:125.7

PHMK Zoom In..

Runways:

(A) RW 05 length 4494 ft width 100 ft
---- / hdg 49

(B) RW 17 length 3118 ft width 100 ft
---- / hdg 169

(C) RW 23 length 4494 ft width 100 ft
---- / hdg 229

(D) RW 35 length 3118 ft width 100 ft
---- / hdg 349

Location; PHMK
Day. 23 / Time. 07.05 Zulu
* Altimeter: 30.01
* Temperature: 26° c. 78.8°f.
* Wind from: 030° Speed 13 kn with Gusts up to 20 kn.
Dewpoint: 23° c.
Visibility: 10 Statute Miles.
Clouds: Broken 1000 ft.
Clouds: Broken 5500 ft.

PHMK 230705Z AUTO 03013G20KT 10SM BKN010 BKN055 26/23 A3001 RMK AO2 T02560233 TSNO


Wind From 030°
Speed 13 kn.

 
 
jpsmedia.com for Web Design worldairports.se 2018   terms of use